createdAt,value
2018-04-29T08:05:08.557Z,55.9
2018-04-29T08:06:23.397Z,56.2
2018-04-29T08:07:24.959Z,58.9
2018-04-29T08:08:27.160Z,75.4
2018-04-29T08:09:28.716Z,80.9
2018-04-29T08:10:30.277Z,77.0
2018-04-29T08:11:31.876Z,85.4
2018-04-29T08:12:33.457Z,86.4
2018-04-29T08:13:35.037Z,78.2
2018-04-29T08:14:36.609Z,85.8
2018-04-29T08:15:38.193Z,88.3
2018-04-29T08:16:39.762Z,92.5
2018-04-29T08:17:41.347Z,92.0
2018-04-29T08:18:42.924Z,95.6
2018-04-29T08:19:44.519Z,83.9
2018-04-29T08:20:46.084Z,86.9
2018-04-29T08:21:47.680Z,86.6
2018-04-29T08:22:49.337Z,82.1
2018-04-29T08:23:50.834Z,82.5
2018-04-29T08:24:52.403Z,88.2
2018-04-29T08:25:54.745Z,89.3
2018-04-29T08:26:56.311Z,89.3
2018-04-29T08:27:57.970Z,99.3
2018-04-29T08:28:59.541Z,99.2
2018-04-29T08:30:01.233Z,99.9
2018-04-29T08:31:04.496Z,97.7
2018-04-29T08:32:06.288Z,100.0
2018-04-29T08:33:07.870Z,100.0
2018-04-29T08:34:09.441Z,100.0
2018-04-29T08:35:11.014Z,100.0
2018-04-29T08:36:12.597Z,100.0
2018-04-29T08:37:14.184Z,100.0
2018-04-29T08:38:15.761Z,98.8
2018-04-29T08:39:17.419Z,100.0
2018-04-29T08:40:19.006Z,92.4
2018-04-29T08:41:20.725Z,93.1
2018-04-29T08:42:22.309Z,95.0
2018-04-29T08:43:24.688Z,100.0
2018-04-29T08:44:26.261Z,98.0
2018-04-29T08:45:27.883Z,95.7
2018-04-29T08:46:29.463Z,87.1
2018-04-29T08:47:32.422Z,82.5
2018-04-29T08:48:34.087Z,88.0
2018-04-29T08:49:35.773Z,86.0
2018-04-29T08:50:37.347Z,96.0
2018-04-29T08:51:38.954Z,100.0
2018-04-29T08:52:40.691Z,91.3
2018-04-29T08:53:43.028Z,100.0
2018-04-29T08:54:44.595Z,100.0
2018-04-29T08:55:46.160Z,90.5
2018-04-29T08:56:48.598Z,64.4
2018-04-29T08:57:51.025Z,59.6
2018-04-29T08:58:52.608Z,33.8
2018-04-29T08:59:54.184Z,41.5
2018-04-29T09:00:55.791Z,28.3
2018-04-29T09:01:57.984Z,20.7
2018-04-29T09:02:59.568Z,19.7
2018-04-29T09:04:01.214Z,25.3
2018-04-29T09:05:02.753Z,21.9
2018-04-29T09:06:04.369Z,26.0
2018-04-29T09:07:05.933Z,22.2
2018-04-29T09:08:07.530Z,32.8
2018-04-29T09:09:09.122Z,35.3
2018-04-29T09:10:10.737Z,32.6
2018-04-29T09:11:12.260Z,35.0
2018-04-29T09:12:16.655Z,58.6
2018-04-29T09:13:18.186Z,68.7
2018-04-29T09:14:19.783Z,67.6
2018-04-29T09:15:21.362Z,67.6
2018-04-29T09:16:22.917Z,76.7
2018-04-29T09:17:24.521Z,77.6
2018-04-29T09:18:26.081Z,71.1
2018-04-29T09:19:27.653Z,73.6
2018-04-29T09:20:29.225Z,76.8
2018-04-29T09:21:30.797Z,74.9
2018-04-29T09:22:32.361Z,83.7
2018-04-29T09:23:33.923Z,81.3
2018-04-29T09:24:35.496Z,69.6
2018-04-29T09:25:37.056Z,77.8
2018-04-29T09:26:38.689Z,77.0
2018-04-29T09:27:40.296Z,84.7
2018-04-29T09:28:41.921Z,76.3
2018-04-29T09:29:43.547Z,74.1
2018-04-29T09:30:45.094Z,69.1
2018-04-29T09:31:46.666Z,67.3
2018-04-29T09:32:48.447Z,78.6
2018-04-29T09:33:50.047Z,86.0
2018-04-29T09:34:51.639Z,88.9
2018-04-29T09:35:53.277Z,100.0
2018-04-29T09:36:54.892Z,91.9
2018-04-29T09:37:56.417Z,89.4
2018-04-29T09:38:57.969Z,83.2
2018-04-29T09:39:59.535Z,90.6
2018-04-29T09:41:01.110Z,96.5
2018-04-29T09:42:02.692Z,86.8
2018-04-29T09:43:04.314Z,92.1
2018-04-29T09:44:05.919Z,90.7
2018-04-29T09:45:07.553Z,78.8
2018-04-29T09:46:09.114Z,83.1
2018-04-29T09:47:10.783Z,69.4
2018-04-29T09:48:12.349Z,26.5
2018-04-29T09:49:13.984Z,1.8
2018-04-29T09:50:15.651Z,2.3
2018-04-29T09:51:17.263Z,0.0
2018-04-29T09:52:18.918Z,0.0
2018-04-29T09:53:20.500Z,0.0
2018-04-29T09:54:22.133Z,0.0
2018-04-29T09:55:23.787Z,3.1
2018-04-29T09:56:25.282Z,3.4
2018-04-29T09:57:26.868Z,0.0
2018-04-29T09:58:28.447Z,0.4
2018-04-29T09:59:30.031Z,15.5
2018-04-29T10:00:31.602Z,11.3
2018-04-29T10:01:33.164Z,10.3
2018-04-29T10:02:34.720Z,17.0
2018-04-29T10:03:36.278Z,19.1
2018-04-29T10:04:37.844Z,20.6
2018-04-29T10:05:39.409Z,40.3
2018-04-29T10:06:40.977Z,57.7
2018-04-29T10:07:42.525Z,58.1
2018-04-29T10:08:44.094Z,56.2
2018-04-29T10:09:45.676Z,61.3
2018-04-29T10:10:47.229Z,60.0
2018-04-29T10:11:48.798Z,48.6
2018-04-29T10:12:50.383Z,52.8
2018-04-29T10:13:51.944Z,72.0
2018-04-29T10:14:53.502Z,72.5
2018-04-29T10:15:55.076Z,64.7
2018-04-29T10:16:56.636Z,48.0
2018-04-29T10:17:58.187Z,66.6
2018-04-29T10:18:59.751Z,80.3
2018-04-29T10:20:01.333Z,75.3
2018-04-29T10:21:02.907Z,69.3
2018-04-29T10:22:04.470Z,65.9
2018-04-29T10:23:06.036Z,74.3
2018-04-29T10:24:07.604Z,72.1
2018-04-29T10:25:09.181Z,65.8
2018-04-29T10:26:10.734Z,75.8
2018-04-29T10:27:12.344Z,74.1
2018-04-29T10:28:13.895Z,74.9
2018-04-29T10:29:15.469Z,71.8
2018-04-29T10:30:17.054Z,70.0
2018-04-29T10:31:18.623Z,83.9
2018-04-29T10:32:20.220Z,97.1
2018-04-29T10:33:21.778Z,94.5
2018-04-29T10:34:23.338Z,99.0
2018-04-29T10:35:24.906Z,100.0
2018-04-29T10:36:26.481Z,95.6
2018-04-29T10:37:28.046Z,92.4
2018-04-29T10:38:29.601Z,92.8
2018-04-29T10:39:31.164Z,93.0
2018-04-29T10:40:32.731Z,89.6
2018-04-29T10:41:34.292Z,84.1
2018-04-29T10:42:35.862Z,90.0
2018-04-29T10:43:37.427Z,94.7
2018-04-29T10:44:39.014Z,100.0
2018-04-29T10:45:40.565Z,93.3
2018-04-29T10:46:42.164Z,100.0
2018-04-29T10:47:43.755Z,100.0
2018-04-29T10:48:45.316Z,100.0
2018-04-29T10:49:46.886Z,100.0
2018-04-29T10:50:48.459Z,100.0
2018-04-29T10:51:50.041Z,100.0
2018-04-29T10:52:51.614Z,100.0
2018-04-29T10:53:53.184Z,100.0
2018-04-29T10:54:54.778Z,100.0
2018-04-29T10:55:56.324Z,100.0
2018-04-29T10:56:57.932Z,96.2
2018-04-29T10:57:59.528Z,96.0
2018-04-29T10:59:01.108Z,98.4
2018-04-29T11:00:02.698Z,90.2
2018-04-29T11:01:04.277Z,93.5
2018-04-29T11:02:05.876Z,79.6
2018-04-29T11:03:07.426Z,73.5
2018-04-29T11:04:09.004Z,60.0
2018-04-29T11:05:10.584Z,59.6
2018-04-29T11:06:12.158Z,48.8
2018-04-29T11:07:13.740Z,37.3
2018-04-29T11:08:15.316Z,39.3
2018-04-29T11:09:16.881Z,17.6
2018-04-29T11:10:18.459Z,4.0
2018-04-29T11:11:20.026Z,0.0
2018-04-29T11:12:21.606Z,0.0
2018-04-29T11:13:23.171Z,0.0
2018-04-29T11:14:24.743Z,0.0
2018-04-29T11:15:26.297Z,0.0
2018-04-29T11:16:27.848Z,0.0
2018-04-29T11:17:29.431Z,0.0
2018-04-29T11:18:31.006Z,0.0
2018-04-29T11:19:32.557Z,0.0
2018-04-29T11:20:34.143Z,15.4
2018-04-29T11:21:35.699Z,16.2
2018-04-29T11:22:37.250Z,8.1
2018-04-29T11:23:38.819Z,10.1
2018-04-29T11:24:40.392Z,7.2
2018-04-29T11:25:41.976Z,12.5
2018-04-29T11:26:43.542Z,18.6
2018-04-29T11:27:45.117Z,25.8
2018-04-29T11:28:46.684Z,20.6
2018-04-29T11:29:48.244Z,17.4
2018-04-29T11:30:49.815Z,20.0
2018-04-29T11:31:51.383Z,26.1
2018-04-29T11:32:52.950Z,26.8
2018-04-29T11:33:54.598Z,20.1
2018-04-29T11:34:56.084Z,16.7
2018-04-29T11:35:57.644Z,17.7
2018-04-29T11:36:59.211Z,11.5
2018-04-29T11:38:00.796Z,10.2
2018-04-29T11:39:02.363Z,22.2
2018-04-29T11:40:03.970Z,28.0
2018-04-29T11:41:05.548Z,28.5
2018-04-29T11:42:07.121Z,47.3
2018-04-29T11:43:08.677Z,46.0
2018-04-29T11:44:10.229Z,41.0
2018-04-29T11:45:11.794Z,51.0
2018-04-29T11:46:13.359Z,55.5
2018-04-29T11:47:14.925Z,49.7
2018-04-29T11:48:16.508Z,56.7
2018-04-29T11:49:18.088Z,80.9
2018-04-29T11:50:19.645Z,65.7
2018-04-29T11:51:21.205Z,51.7
2018-04-29T11:52:22.775Z,63.2
2018-04-29T11:53:24.359Z,54.6
2018-04-29T11:54:25.920Z,69.6
2018-04-29T11:55:27.501Z,68.6
2018-04-29T11:56:29.057Z,59.7
2018-04-29T11:57:30.624Z,80.4
2018-04-29T11:58:32.197Z,68.2
2018-04-29T11:59:33.767Z,80.0
2018-04-29T12:00:35.355Z,85.1
2018-04-29T12:01:36.931Z,86.9
2018-04-29T12:02:38.572Z,88.3
2018-04-29T12:03:40.088Z,78.7
2018-04-29T12:04:41.650Z,81.3
2018-04-29T12:05:43.224Z,87.8
2018-04-29T12:06:44.798Z,100.0
2018-04-29T12:07:46.371Z,100.0
2018-04-29T12:08:47.950Z,100.0
2018-04-29T12:09:49.542Z,100.0
2018-04-29T12:10:51.109Z,100.0
2018-04-29T12:11:52.693Z,99.0
2018-04-29T12:12:54.261Z,94.8
2018-04-29T12:13:55.830Z,82.8
2018-04-29T12:14:57.406Z,81.3
2018-04-29T12:15:58.981Z,88.0
2018-04-29T12:17:00.555Z,99.2
2018-04-29T12:18:02.362Z,100.0
2018-04-29T12:19:05.518Z,100.0
2018-04-29T12:20:07.055Z,100.0
2018-04-29T12:21:08.820Z,100.0
2018-04-29T12:22:10.432Z,100.0
2018-04-29T12:23:12.324Z,100.0
2018-04-29T12:24:13.940Z,100.0
2018-04-29T12:25:16.530Z,100.0
2018-04-29T12:26:18.114Z,100.0
2018-04-29T12:27:19.686Z,100.0
2018-04-29T12:28:21.267Z,100.0
2018-04-29T12:29:22.849Z,100.0
2018-04-29T12:30:24.426Z,100.0
2018-04-29T12:31:25.991Z,100.0
2018-04-29T12:32:27.576Z,100.0
2018-04-29T12:33:29.155Z,100.0
2018-04-29T12:34:30.769Z,100.0
2018-04-29T12:35:32.367Z,100.0
2018-04-29T12:36:33.931Z,100.0
2018-04-29T12:37:35.524Z,100.0
2018-04-29T12:38:37.114Z,100.0
2018-04-29T12:39:38.743Z,100.0
2018-04-29T12:40:40.566Z,100.0
2018-04-29T12:41:42.375Z,100.0
2018-04-29T12:42:44.333Z,100.0
2018-04-29T12:43:46.221Z,100.0
2018-04-29T12:44:47.908Z,100.0
2018-04-29T12:45:49.735Z,100.0
2018-04-29T12:46:51.413Z,100.0
2018-04-29T12:47:53.274Z,100.0
2018-04-29T12:48:55.095Z,100.0
2018-04-29T12:49:56.850Z,100.0
2018-04-29T12:50:58.677Z,100.0
2018-04-29T12:52:00.524Z,100.0
2018-04-29T12:53:02.305Z,100.0
2018-04-29T12:54:04.182Z,100.0
2018-04-29T12:55:06.024Z,100.0
2018-04-29T12:56:07.945Z,100.0
2018-04-29T12:57:09.733Z,100.0
2018-04-29T12:58:11.540Z,100.0
2018-04-29T12:59:13.492Z,100.0
2018-04-29T13:00:15.393Z,100.0
2018-04-29T13:01:17.889Z,100.0
2018-04-29T13:02:19.715Z,100.0
2018-04-29T13:03:21.523Z,100.0
2018-04-29T13:04:23.387Z,100.0
2018-04-29T13:05:25.231Z,100.0
2018-04-29T13:06:27.177Z,100.0
2018-04-29T13:07:29.051Z,100.0
2018-04-29T13:08:30.724Z,100.0
2018-04-29T13:09:32.493Z,100.0
2018-04-29T13:10:34.354Z,100.0
2018-04-29T13:11:36.275Z,100.0
2018-04-29T13:12:38.028Z,100.0
2018-04-29T13:13:39.916Z,100.0
2018-04-29T13:14:41.791Z,100.0
2018-04-29T13:15:43.620Z,100.0
2018-04-29T13:16:45.374Z,100.0
2018-04-29T13:17:47.144Z,100.0
2018-04-29T13:18:49.298Z,100.0
2018-04-29T13:19:51.195Z,100.0
2018-04-29T13:20:53.069Z,100.0
2018-04-29T13:21:55.017Z,100.0
2018-04-29T13:22:56.835Z,100.0
2018-04-29T13:23:58.657Z,100.0
2018-04-29T13:25:00.624Z,100.0
2018-04-29T13:26:02.462Z,100.0
2018-04-29T13:27:04.399Z,100.0
2018-04-29T13:28:06.305Z,100.0
2018-04-29T13:29:08.080Z,100.0
2018-04-29T13:30:09.985Z,100.0
2018-04-29T13:31:11.904Z,100.0
2018-04-29T13:32:13.894Z,100.0
2018-04-29T13:33:15.747Z,100.0
2018-04-29T13:34:17.737Z,100.0
2018-04-29T13:35:19.704Z,100.0
2018-04-29T13:36:21.445Z,100.0
2018-04-29T13:37:23.353Z,100.0
2018-04-29T13:38:25.310Z,100.0
2018-04-29T13:39:28.048Z,100.0
2018-04-29T13:40:29.981Z,100.0
2018-04-29T13:41:32.084Z,100.0
2018-04-29T13:42:34.838Z,100.0
2018-04-29T13:43:36.445Z,100.0
2018-04-29T13:44:38.064Z,100.0
2018-04-29T13:45:39.838Z,100.0
2018-04-29T13:46:41.519Z,100.0
2018-04-29T13:47:43.164Z,100.0
2018-04-29T13:48:44.800Z,100.0
2018-04-29T13:49:46.444Z,100.0
2018-04-29T13:50:48.064Z,100.0
2018-04-29T13:51:49.803Z,100.0
2018-04-29T13:52:51.423Z,100.0
2018-04-29T13:53:53.003Z,100.0
2018-04-29T13:54:54.647Z,100.0
2018-04-29T13:55:56.321Z,100.0
2018-04-29T13:56:58.002Z,100.0
2018-04-29T13:57:59.659Z,100.0
2018-04-29T13:59:01.348Z,100.0
2018-04-29T14:00:03.024Z,100.0
2018-04-29T14:01:04.654Z,100.0
2018-04-29T14:02:06.308Z,100.0
2018-04-29T14:03:07.962Z,100.0
2018-04-29T14:04:09.670Z,100.0
2018-04-29T14:05:11.382Z,96.8
2018-04-29T14:06:13.066Z,100.0
2018-04-29T14:07:15.133Z,100.0
2018-04-29T14:08:16.761Z,100.0
2018-04-29T14:09:18.510Z,100.0
2018-04-29T14:10:20.213Z,100.0
2018-04-29T14:11:21.735Z,100.0
2018-04-29T14:12:23.314Z,100.0
2018-04-29T14:13:24.897Z,95.9
2018-04-29T14:14:26.488Z,93.6
2018-04-29T14:15:28.070Z,90.9
2018-04-29T14:16:29.661Z,95.6
2018-04-29T14:17:31.238Z,95.9
2018-04-29T14:18:32.826Z,96.9
2018-04-29T14:19:34.422Z,98.4
2018-04-29T14:20:35.991Z,91.7
2018-04-29T14:21:37.683Z,88.4
2018-04-29T14:22:39.276Z,90.6
2018-04-29T14:23:41.767Z,93.0
2018-04-29T14:24:43.505Z,100.0
2018-04-29T14:25:45.140Z,100.0
2018-04-29T14:26:46.876Z,100.0
2018-04-29T14:27:48.546Z,100.0
2018-04-29T14:28:50.190Z,99.1
2018-04-29T14:29:51.855Z,96.2
2018-04-29T14:30:53.665Z,94.4
2018-04-29T14:31:55.432Z,93.5
2018-04-29T14:32:57.230Z,93.5
2018-04-29T14:33:59.011Z,93.6
2018-04-29T14:35:00.749Z,98.8
2018-04-29T14:36:02.711Z,100.0
2018-04-29T14:37:04.446Z,100.0
2018-04-29T14:38:06.101Z,100.0
2018-04-29T14:39:07.716Z,99.4
2018-04-29T14:40:09.394Z,97.5
2018-04-29T14:41:11.021Z,92.0
2018-04-29T14:42:12.639Z,91.1
2018-04-29T14:43:14.380Z,91.5
2018-04-29T14:44:15.953Z,87.6
2018-04-29T14:45:17.632Z,94.0
2018-04-29T14:46:20.048Z,100.0
2018-04-29T14:47:22.075Z,100.0
2018-04-29T14:48:23.914Z,100.0
2018-04-29T14:49:25.734Z,100.0
2018-04-29T14:50:27.745Z,100.0
2018-04-29T14:51:31.592Z,100.0
2018-04-29T14:52:34.045Z,100.0
2018-04-29T14:53:38.390Z,100.0
2018-04-29T14:54:41.677Z,100.0
2018-04-29T14:55:44.805Z,98.2
2018-04-29T14:56:47.447Z,97.1
2018-04-29T14:57:49.768Z,98.6
2018-04-29T14:58:52.137Z,94.8
2018-04-29T14:59:54.533Z,88.5
2018-04-29T15:00:56.769Z,87.2
2018-04-29T15:01:59.334Z,87.2
2018-04-29T15:03:02.746Z,100.0
2018-04-29T15:04:04.508Z,100.0
2018-04-29T15:05:06.120Z,100.0
2018-04-29T15:06:07.938Z,100.0
2018-04-29T15:07:09.704Z,98.2
2018-04-29T15:08:11.494Z,100.0
2018-04-29T15:09:13.109Z,98.3
2018-04-29T15:10:14.716Z,93.6
2018-04-29T15:11:16.312Z,94.5
2018-04-29T15:12:18.019Z,100.0
2018-04-29T15:13:19.803Z,99.6
2018-04-29T15:14:21.637Z,100.0
2018-04-29T15:15:23.252Z,100.0
2018-04-29T15:16:24.832Z,100.0
2018-04-29T15:17:26.560Z,99.0
2018-04-29T15:18:28.183Z,97.9
2018-04-29T15:19:29.987Z,95.9
2018-04-29T15:20:31.708Z,95.8
2018-04-29T15:21:33.469Z,94.0
2018-04-29T15:22:35.180Z,93.6
2018-04-29T15:23:36.837Z,87.5
2018-04-29T15:24:38.825Z,89.4
2018-04-29T15:25:40.682Z,87.4
2018-04-29T15:26:42.293Z,92.3
2018-04-29T15:27:43.913Z,98.4
2018-04-29T15:28:46.127Z,99.4
2018-04-29T15:29:47.774Z,100.0
2018-04-29T15:30:49.442Z,98.3
2018-04-29T15:31:51.183Z,100.0
2018-04-29T15:32:52.910Z,100.0
2018-04-29T15:33:54.558Z,99.4
2018-04-29T15:34:56.211Z,92.2
2018-04-29T15:35:58.046Z,95.1
2018-04-29T15:36:59.994Z,100.0
2018-04-29T15:38:01.659Z,100.0
2018-04-29T15:39:03.319Z,100.0
2018-04-29T15:40:05.032Z,100.0
2018-04-29T15:41:06.801Z,100.0
2018-04-29T15:42:08.509Z,100.0
2018-04-29T15:43:10.282Z,100.0
2018-04-29T15:44:11.914Z,100.0
2018-04-29T15:45:13.561Z,100.0
2018-04-29T15:46:15.235Z,100.0
2018-04-29T15:47:16.903Z,100.0
2018-04-29T15:48:18.726Z,96.3
2018-04-29T15:49:20.440Z,100.0
2018-04-29T15:50:22.162Z,100.0
2018-04-29T15:51:23.823Z,98.5
2018-04-29T15:52:25.482Z,91.4
2018-04-29T15:53:27.220Z,92.7
2018-04-29T15:54:28.884Z,84.6
2018-04-29T15:55:30.574Z,82.5
2018-04-29T15:56:32.298Z,77.6
2018-04-29T15:57:33.951Z,80.8
2018-04-29T15:58:35.631Z,83.9
2018-04-29T15:59:37.340Z,88.4
2018-04-29T16:00:38.947Z,95.8
2018-04-29T16:01:41.249Z,100.0
2018-04-29T16:02:42.863Z,100.0
2018-04-29T16:03:44.507Z,100.0
2018-04-29T16:04:46.199Z,100.0
2018-04-29T16:05:47.862Z,100.0
2018-04-29T16:06:49.508Z,100.0
2018-04-29T16:07:51.181Z,100.0
2018-04-29T16:08:52.847Z,100.0
2018-04-29T16:09:54.471Z,100.0
2018-04-29T16:10:56.115Z,100.0
2018-04-29T16:11:57.760Z,100.0
2018-04-29T16:12:59.409Z,100.0
2018-04-29T16:14:01.039Z,100.0
2018-04-29T16:15:02.732Z,100.0
2018-04-29T16:16:04.371Z,100.0
2018-04-29T16:17:06.049Z,100.0
2018-04-29T16:18:07.754Z,100.0
2018-04-29T16:19:09.412Z,100.0
2018-04-29T16:20:11.095Z,100.0
2018-04-29T16:21:12.791Z,100.0
2018-04-29T16:22:14.403Z,100.0
2018-04-29T16:23:16.047Z,100.0
2018-04-29T16:24:17.636Z,100.0
2018-04-29T16:25:19.229Z,100.0
2018-04-29T16:26:20.819Z,100.0
2018-04-29T16:27:22.447Z,100.0
2018-04-29T16:28:24.070Z,100.0
2018-04-29T16:29:25.677Z,100.0
2018-04-29T16:30:28.143Z,100.0
2018-04-29T16:31:29.803Z,100.0
2018-04-29T16:32:31.441Z,100.0
2018-04-29T16:33:33.029Z,100.0
2018-04-29T16:34:34.854Z,100.0
2018-04-29T16:35:36.459Z,100.0
2018-04-29T16:36:38.057Z,100.0
2018-04-29T16:37:39.686Z,100.0
2018-04-29T16:38:41.269Z,100.0
2018-04-29T16:39:42.833Z,100.0
2018-04-29T16:40:44.448Z,100.0
2018-04-29T16:41:46.239Z,100.0
2018-04-29T16:42:47.858Z,100.0
2018-04-29T16:43:50.116Z,100.0
2018-04-29T16:44:51.755Z,100.0
2018-04-29T16:45:53.337Z,100.0
2018-04-29T16:46:54.942Z,100.0
2018-04-29T16:47:56.580Z,100.0
2018-04-29T16:48:58.181Z,100.0
2018-04-29T16:49:59.795Z,100.0
2018-04-29T16:51:01.401Z,100.0
2018-04-29T16:52:03.024Z,100.0
2018-04-29T16:53:04.639Z,100.0
2018-04-29T16:54:06.265Z,100.0
2018-04-29T16:55:07.868Z,100.0
2018-04-29T16:56:09.492Z,100.0
2018-04-29T16:57:11.124Z,100.0
2018-04-29T16:58:12.727Z,100.0
2018-04-29T16:59:14.333Z,100.0
2018-04-29T17:00:15.946Z,100.0
2018-04-29T17:01:17.685Z,100.0
2018-04-29T17:02:19.224Z,100.0
2018-04-29T17:03:23.627Z,100.0
2018-04-29T17:04:25.224Z,100.0
2018-04-29T17:05:26.831Z,100.0
2018-04-29T17:06:28.447Z,100.0
2018-04-29T17:07:30.033Z,100.0
2018-04-29T17:08:31.649Z,100.0
2018-04-29T17:09:33.337Z,100.0
2018-04-29T17:10:34.878Z,100.0
2018-04-29T17:11:36.515Z,100.0
2018-04-29T17:12:38.240Z,100.0
2018-04-29T17:13:39.906Z,100.0
2018-04-29T17:14:41.604Z,100.0
2018-04-29T17:15:43.249Z,100.0
2018-04-29T17:16:44.921Z,100.0
2018-04-29T17:17:46.565Z,100.0
2018-04-29T17:18:48.328Z,100.0
2018-04-29T17:19:50.083Z,100.0
2018-04-29T17:20:51.796Z,100.0
2018-04-29T17:21:53.453Z,100.0
2018-04-29T17:22:55.186Z,100.0
2018-04-29T17:23:56.914Z,100.0
2018-04-29T17:24:58.663Z,100.0
2018-04-29T17:26:00.361Z,100.0
2018-04-29T17:27:02.103Z,100.0
2018-04-29T17:28:03.765Z,100.0
2018-04-29T17:29:05.491Z,100.0
2018-04-29T17:30:07.189Z,100.0
2018-04-29T17:31:08.976Z,100.0
2018-04-29T17:32:11.500Z,100.0
2018-04-29T17:33:13.221Z,100.0
2018-04-29T17:34:14.940Z,100.0
2018-04-29T17:35:16.933Z,100.0
2018-04-29T17:36:18.636Z,100.0
2018-04-29T17:37:20.312Z,100.0
2018-04-29T17:38:22.218Z,100.0
2018-04-29T17:39:23.911Z,100.0
2018-04-29T17:40:25.641Z,100.0
2018-04-29T17:41:27.263Z,96.1
2018-04-29T17:42:29.379Z,99.4
2018-04-29T17:43:31.214Z,96.0
2018-04-29T17:44:33.569Z,98.0
2018-04-29T17:45:35.288Z,91.2
2018-04-29T17:46:36.928Z,89.2
2018-04-29T17:47:38.575Z,83.6
2018-04-29T17:48:40.294Z,88.3
2018-04-29T17:49:42.246Z,86.5
2018-04-29T17:50:44.230Z,88.5
2018-04-29T17:51:45.946Z,90.7
2018-04-29T17:52:47.905Z,93.9
2018-04-29T17:53:49.644Z,100.0
2018-04-29T17:54:51.349Z,100.0
2018-04-29T17:55:53.058Z,100.0
2018-04-29T17:56:54.757Z,100.0
2018-04-29T17:57:56.443Z,100.0
2018-04-29T17:58:58.032Z,100.0
2018-04-29T17:59:59.683Z,100.0
2018-04-29T18:01:01.379Z,100.0
2018-04-29T18:02:03.063Z,100.0
2018-04-29T18:03:04.723Z,100.0
2018-04-29T18:04:06.425Z,100.0
2018-04-29T18:05:08.218Z,100.0
2018-04-29T18:06:09.872Z,100.0
2018-04-29T18:07:11.616Z,100.0
2018-04-29T18:08:13.302Z,100.0
2018-04-29T18:09:14.994Z,100.0
2018-04-29T18:10:16.695Z,100.0
2018-04-29T18:11:18.438Z,100.0
2018-04-29T18:12:20.124Z,100.0
2018-04-29T18:13:21.789Z,100.0
2018-04-29T18:14:23.494Z,100.0
2018-04-29T18:15:27.762Z,100.0
2018-04-29T18:16:29.380Z,100.0
2018-04-29T18:17:30.982Z,100.0
2018-04-29T18:18:32.637Z,100.0
2018-04-29T18:19:34.244Z,100.0
2018-04-29T18:20:35.870Z,100.0
2018-04-29T18:21:37.496Z,100.0
2018-04-29T18:22:39.144Z,100.0
2018-04-29T18:23:40.780Z,100.0
2018-04-29T18:24:42.447Z,100.0
2018-04-29T18:25:44.090Z,100.0
2018-04-29T18:26:45.805Z,100.0
2018-04-29T18:27:47.581Z,100.0
2018-04-29T18:28:49.126Z,100.0
2018-04-29T18:29:50.786Z,100.0
2018-04-29T18:30:52.517Z,100.0
2018-04-29T18:31:54.189Z,100.0
2018-04-29T18:32:55.904Z,100.0
2018-04-29T18:33:57.551Z,100.0
2018-04-29T18:35:00.127Z,100.0
2018-04-29T18:36:01.782Z,100.0
2018-04-29T18:37:03.400Z,100.0
2018-04-29T18:38:05.043Z,100.0
2018-04-29T18:39:06.739Z,100.0
2018-04-29T18:40:08.312Z,100.0
2018-04-29T18:41:09.937Z,100.0
2018-04-29T18:42:11.573Z,100.0
2018-04-29T18:43:13.174Z,100.0
2018-04-29T18:44:18.330Z,100.0
2018-04-29T18:45:20.044Z,100.0
2018-04-29T18:46:21.741Z,100.0
2018-04-29T18:47:23.394Z,100.0
2018-04-29T18:48:25.055Z,100.0
2018-04-29T18:49:26.681Z,100.0
2018-04-29T18:50:28.414Z,100.0
2018-04-29T18:51:30.016Z,100.0
2018-04-29T18:52:31.561Z,100.0
2018-04-29T18:53:34.127Z,100.0
2018-04-29T18:54:35.741Z,100.0
2018-04-29T18:55:37.355Z,100.0
2018-04-29T18:56:39.008Z,100.0
2018-04-29T18:57:40.620Z,100.0
2018-04-29T18:58:42.250Z,100.0
2018-04-29T18:59:43.886Z,100.0
2018-04-29T19:00:45.481Z,100.0
2018-04-29T19:01:47.121Z,100.0
2018-04-29T19:02:48.739Z,100.0
2018-04-29T19:03:50.382Z,100.0
2018-04-29T19:04:52.100Z,100.0
2018-04-29T19:05:53.680Z,100.0
2018-04-29T19:06:55.312Z,100.0
2018-04-29T19:07:57.035Z,100.0
2018-04-29T19:08:58.764Z,100.0
2018-04-29T19:10:00.390Z,100.0
2018-04-29T19:11:02.034Z,100.0
2018-04-29T19:12:04.204Z,100.0
2018-04-29T19:13:05.867Z,100.0
2018-04-29T19:14:08.250Z,100.0
2018-04-29T19:15:09.783Z,100.0
2018-04-29T19:16:11.444Z,100.0
2018-04-29T19:17:13.153Z,100.0
2018-04-29T19:18:14.750Z,100.0
2018-04-29T19:19:16.391Z,100.0
2018-04-29T19:20:17.998Z,100.0
2018-04-29T19:21:19.624Z,100.0
2018-04-29T19:22:21.279Z,100.0
2018-04-29T19:23:22.905Z,100.0
2018-04-29T19:24:24.602Z,100.0
2018-04-29T19:25:26.228Z,100.0
2018-04-29T19:26:27.830Z,100.0
2018-04-29T19:27:29.447Z,100.0
2018-04-29T19:28:31.067Z,100.0
2018-04-29T19:29:32.670Z,100.0
2018-04-29T19:30:34.312Z,100.0
2018-04-29T19:31:36.012Z,100.0
2018-04-29T19:32:37.575Z,100.0
2018-04-29T19:33:39.199Z,100.0
2018-04-29T19:34:40.823Z,100.0
2018-04-29T19:35:42.438Z,100.0
2018-04-29T19:36:44.064Z,100.0
2018-04-29T19:37:45.722Z,100.0
2018-04-29T19:38:47.371Z,100.0
2018-04-29T19:39:49.013Z,100.0
2018-04-29T19:40:50.623Z,100.0
2018-04-29T19:41:52.262Z,100.0
2018-04-29T19:42:53.914Z,100.0
2018-04-29T19:43:55.614Z,100.0
2018-04-29T19:44:57.150Z,100.0
2018-04-29T19:45:58.760Z,100.0
2018-04-29T19:47:00.389Z,100.0
2018-04-29T19:48:01.983Z,100.0
2018-04-29T19:49:03.731Z,100.0
2018-04-29T19:50:05.349Z,100.0
2018-04-29T19:51:06.968Z,100.0
2018-04-29T19:52:08.559Z,100.0
2018-04-29T19:53:10.178Z,84.6
2018-04-29T19:54:11.764Z,85.6
2018-04-29T19:55:13.902Z,72.2
2018-04-29T19:56:15.545Z,70.5
2018-04-29T19:57:17.145Z,54.2
2018-04-29T19:58:18.750Z,49.9
2018-04-29T19:59:21.248Z,40.4
2018-04-29T20:00:22.373Z,38.5
2018-04-29T20:01:24.029Z,29.2
2018-04-29T20:02:25.669Z,29.4
2018-04-29T20:03:27.267Z,34.8
2018-04-29T20:04:28.855Z,41.3
2018-04-29T20:05:30.457Z,48.0
2018-04-29T20:06:32.081Z,50.9
2018-04-29T20:07:33.717Z,42.6
2018-04-29T20:08:35.324Z,33.1
2018-04-29T20:09:37.010Z,26.6
2018-04-29T20:10:38.617Z,26.1
2018-04-29T20:11:40.211Z,29.6
2018-04-29T20:12:41.849Z,33.2
2018-04-29T20:13:43.546Z,45.6
2018-04-29T20:14:45.135Z,43.1
2018-04-29T20:15:46.750Z,51.4
2018-04-29T20:16:48.338Z,60.7
2018-04-29T20:17:49.959Z,64.8
2018-04-29T20:18:51.552Z,62.3
2018-04-29T20:19:53.173Z,69.4
2018-04-29T20:20:54.800Z,66.9
2018-04-29T20:21:56.481Z,65.0
2018-04-29T20:22:58.214Z,65.9
2018-04-29T20:23:59.915Z,67.1
2018-04-29T20:25:01.531Z,63.0
2018-04-29T20:26:03.126Z,77.1
2018-04-29T20:27:04.736Z,78.3
2018-04-29T20:28:06.369Z,84.1
2018-04-29T20:29:07.984Z,86.1
2018-04-29T20:30:09.570Z,80.0
2018-04-29T20:31:11.171Z,68.5
2018-04-29T20:32:12.895Z,73.0
2018-04-29T20:33:14.751Z,75.8
2018-04-29T20:34:16.351Z,65.5
2018-04-29T20:35:17.967Z,62.5
2018-04-29T20:36:19.580Z,71.4
2018-04-29T20:37:21.299Z,58.7
2018-04-29T20:38:22.928Z,56.4
2018-04-29T20:39:24.536Z,57.5
2018-04-29T20:40:26.180Z,57.4
2018-04-29T20:41:27.792Z,63.0
2018-04-29T20:42:29.407Z,65.7
2018-04-29T20:43:31.675Z,59.8
2018-04-29T20:44:33.284Z,52.2
2018-04-29T20:45:34.915Z,68.4
2018-04-29T20:46:36.541Z,65.7
2018-04-29T20:47:38.152Z,63.1
2018-04-29T20:48:39.751Z,69.3
2018-04-29T20:49:41.360Z,65.2
2018-04-29T20:50:43.011Z,59.9
2018-04-29T20:51:48.680Z,59.6
2018-04-29T20:52:50.266Z,56.8
2018-04-29T20:53:51.982Z,57.0
2018-04-29T20:54:53.561Z,55.1
2018-04-29T20:55:55.157Z,49.8
2018-04-29T20:56:56.764Z,52.7
2018-04-29T20:57:58.388Z,50.5
2018-04-29T20:58:59.992Z,52.6
2018-04-29T21:00:04.898Z,47.6
2018-04-29T21:01:06.483Z,47.1
2018-04-29T21:02:08.077Z,47.3
2018-04-29T21:03:09.677Z,40.0
2018-04-29T21:04:11.286Z,33.3
2018-04-29T21:05:12.881Z,36.8
2018-04-29T21:06:14.501Z,34.8
2018-04-29T21:07:16.113Z,36.2
2018-04-29T21:08:24.496Z,46.8
2018-04-29T21:09:26.181Z,58.3
2018-04-29T21:10:27.823Z,57.6
2018-04-29T21:11:29.471Z,70.2
2018-04-29T21:12:31.125Z,65.6
2018-04-29T21:13:35.450Z,57.7
2018-04-29T21:14:37.047Z,49.0
2018-04-29T21:15:38.725Z,55.4
2018-04-29T21:16:40.476Z,44.0
2018-04-29T21:17:42.111Z,49.9
2018-04-29T21:18:43.786Z,39.9
2018-04-29T21:19:45.474Z,42.0
2018-04-29T21:20:47.129Z,41.2
2018-04-29T21:21:48.782Z,32.5
2018-04-29T21:22:50.458Z,27.3
2018-04-29T21:23:52.184Z,21.3
2018-04-29T21:24:53.831Z,20.6
2018-04-29T21:25:55.517Z,16.7
2018-04-29T21:26:57.161Z,11.5
2018-04-29T21:27:58.843Z,8.0
2018-04-29T21:29:00.518Z,6.8
2018-04-29T21:30:02.147Z,6.3
2018-04-29T21:31:03.814Z,10.6
2018-04-29T21:32:05.483Z,12.5
2018-04-29T21:33:07.167Z,18.1
2018-04-29T21:34:09.160Z,13.6